Time;durP1;ratioP1;P1;durP2;ratioP2;P2;SDS_P1;SDS_P2;PMS_P1;PMS_P2;Temp;Humidity;BMP_temperature;BMP_pressure;BME280_temperature;BME280_humidity;BME280_pressure;Samples;Min_cycle;Max_cycle;Signal;HPM_P1;HPM_P2
2024/04/22 00:04:54;;;;;;;9.97;4.80;;;;;4.70;102127.00;;;;10435796;28;20267;-84
2024/04/22 00:09:55;;;;;;;6.27;5.20;;;;;4.70;102128.00;;;;10443667;27;20332;-84
2024/04/22 00:14:57;;;;;;;5.83;4.73;;;;;4.70;102125.00;;;;10467754;28;20281;-84
2024/04/22 00:19:58;;;;;;;7.47;5.17;;;;;4.70;102114.00;;;;10447713;27;20297;-85
2024/04/22 00:25:00;;;;;;;8.30;5.17;;;;;4.70;102103.00;;;;10470178;27;20266;-84
2024/04/22 00:30:01;;;;;;;5.77;4.97;;;;;4.50;102100.00;;;;10463154;28;20274;-84
2024/04/22 00:48:49;;;;;;;5.73;5.07;;;;;4.20;102097.00;;;;10387301;27;20272;-92
2024/04/22 01:08:42;;;;;;;5.70;4.37;;;;;3.90;102085.00;;;;9752970;29;20274;-91
2024/04/22 01:14:41;;;;;;;6.13;4.80;;;;;3.80;102095.00;;;;9624788;29;20294;-91
2024/04/22 01:20:45;;;;;;;7.80;5.80;;;;;3.70;102090.00;;;;9587318;30;20504;-92
2024/04/22 01:41:36;;;;;;;8.63;5.40;;;;;3.60;102085.00;;;;13896254;20;20338;-80
2024/04/22 01:46:38;;;;;;;7.07;5.47;;;;;3.60;102076.00;;;;13895857;20;20698;-79
2024/04/22 01:51:39;;;;;;;8.10;5.47;;;;;3.70;102081.00;;;;13834088;21;20354;-79
2024/04/22 01:56:41;;;;;;;8.23;5.07;;;;;3.80;102080.00;;;;13833517;21;20246;-79
2024/04/22 02:01:43;;;;;;;6.53;4.97;;;;;3.80;102076.00;;;;13836799;21;20844;-80
2024/04/22 02:06:44;;;;;;;7.57;5.27;;;;;3.90;102069.00;;;;13789481;21;20251;-80
2024/04/22 02:11:46;;;;;;;7.73;5.40;;;;;3.80;102069.00;;;;13833786;21;20255;-80
2024/04/22 02:16:47;;;;;;;5.93;5.00;;;;;3.80;102071.00;;;;13834102;21;20335;-80
2024/04/22 02:21:49;;;;;;;7.90;5.30;;;;;3.80;102081.00;;;;13932644;20;20241;-80
2024/04/22 02:26:51;;;;;;;6.77;5.00;;;;;3.70;102073.00;;;;13969223;20;20249;-80
2024/04/22 02:31:52;;;;;;;6.67;5.67;;;;;3.70;102075.00;;;;14014388;20;20300;-80
2024/04/22 02:36:53;;;;;;;9.00;5.73;;;;;3.80;102061.00;;;;13953552;20;20291;-80
2024/04/22 02:41:55;;;;;;;7.77;5.60;;;;;3.90;102064.00;;;;13997362;21;20253;-80
2024/04/22 02:46:56;;;;;;;7.33;5.73;;;;;4.00;102066.00;;;;14045925;20;21006;-80
2024/04/22 02:51:58;;;;;;;6.87;5.27;;;;;4.10;102061.00;;;;14048186;20;20280;-81
2024/04/22 02:56:59;;;;;;;7.87;6.27;;;;;4.10;102063.00;;;;13954139;21;20647;-82
2024/04/22 03:02:01;;;;;;;8.17;5.23;;;;;4.20;102065.00;;;;13951764;21;20276;-82
2024/04/22 03:07:04;;;;;;;8.60;5.37;;;;;4.20;102061.00;;;;13950881;21;20363;-81
2024/04/22 03:12:06;;;;;;;9.53;5.47;;;;;4.20;102060.00;;;;13953575;20;20284;-81
2024/04/22 03:17:08;;;;;;;9.80;6.00;;;;;4.20;102051.00;;;;13997110;21;20341;-81
2024/04/22 03:22:09;;;;;;;9.83;5.60;;;;;4.20;102046.00;;;;13953266;21;20297;-81
2024/04/22 03:27:11;;;;;;;10.17;5.07;;;;;4.20;102038.00;;;;13950874;20;20249;-81
2024/04/22 03:32:12;;;;;;;6.50;5.47;;;;;4.20;102037.00;;;;13996882;20;20249;-81
2024/04/22 03:37:14;;;;;;;8.73;6.33;;;;;4.30;102035.00;;;;13906248;20;20271;-81
2024/04/22 03:42:15;;;;;;;8.30;6.30;;;;;4.30;102034.00;;;;13906117;21;21048;-80
2024/04/22 03:52:37;;;;;;;10.07;5.57;;;;;4.30;102032.00;;;;13998434;20;20245;-82
2024/04/22 03:57:38;;;;;;;9.33;5.67;;;;;4.20;102029.00;;;;13950103;21;20341;-81
2024/04/22 04:02:40;;;;;;;10.47;6.20;;;;;4.00;102029.00;;;;13996192;21;20259;-83
2024/04/22 04:07:41;;;;;;;8.43;6.03;;;;;3.90;102027.00;;;;13904877;20;20285;-83
2024/04/22 04:12:43;;;;;;;8.57;5.63;;;;;3.70;102036.00;;;;13998164;20;20345;-83
2024/04/22 04:17:44;;;;;;;9.53;6.70;;;;;3.50;102043.00;;;;13949538;20;20276;-83
2024/04/22 04:22:46;;;;;;;7.13;6.17;;;;;3.50;102049.00;;;;13994410;21;20276;-83
2024/04/22 04:27:48;;;;;;;8.30;6.73;;;;;3.40;102046.00;;;;13949603;20;20362;-83
2024/04/22 04:32:49;;;;;;;7.80;6.57;;;;;3.40;102053.00;;;;14042106;21;20275;-83
2024/04/22 04:37:51;;;;;;;8.13;6.57;;;;;3.40;102048.00;;;;13996809;20;20253;-83
2024/04/22 04:42:52;;;;;;;10.53;7.20;;;;;3.40;102045.00;;;;13949330;20;20345;-83
2024/04/22 04:47:54;;;;;;;10.13;7.30;;;;;3.40;102058.00;;;;13995462;20;20362;-83
2024/04/22 04:52:56;;;;;;;9.13;7.23;;;;;3.50;102048.00;;;;13994478;20;20272;-83
2024/04/22 04:57:58;;;;;;;11.53;7.53;;;;;3.50;102061.00;;;;13995894;20;20293;-81
2024/04/22 05:02:59;;;;;;;9.57;7.20;;;;;3.60;102056.00;;;;13948201;20;21063;-83
2024/04/22 05:08:03;;;;;;;12.50;7.73;;;;;3.70;102059.00;;;;13949434;20;20271;-83
2024/04/22 05:13:05;;;;;;;14.03;8.13;;;;;3.80;102058.00;;;;13904716;21;20293;-83
2024/04/22 05:18:06;;;;;;;14.93;8.47;;;;;4.00;102060.00;;;;13951821;20;20248;-82
2024/04/22 05:23:08;;;;;;;10.80;8.13;;;;;4.30;102056.00;;;;13991887;21;20250;-82
2024/04/22 05:28:09;;;;;;;10.13;7.87;;;;;4.90;102052.00;;;;14042287;20;20312;-84
2024/04/22 05:38:32;;;;;;;11.20;7.30;;;;;5.20;102052.00;;;;13949700;20;20247;-83
2024/04/22 05:43:33;;;;;;;12.03;8.43;;;;;5.60;102057.00;;;;13903937;21;20345;-83
2024/04/22 05:48:35;;;;;;;13.23;7.03;;;;;5.70;102054.00;;;;13949921;21;20354;-83
2024/04/22 05:53:36;;;;;;;10.00;7.10;;;;;6.00;102064.00;;;;13946295;21;20685;-83
2024/04/22 05:58:38;;;;;;;12.03;7.33;;;;;6.30;102058.00;;;;13948928;21;20245;-84
2024/04/22 06:03:39;;;;;;;9.13;6.37;;;;;6.30;102056.00;;;;13993709;21;20257;-83
2024/04/22 06:08:42;;;;;;;8.17;6.60;;;;;6.60;102047.00;;;;13902440;21;20249;-83
2024/04/22 06:13:44;;;;;;;7.87;5.80;;;;;6.90;102044.00;;;;13997608;20;20245;-84
2024/04/22 06:18:45;;;;;;;8.07;5.73;;;;;7.10;102054.00;;;;14003031;20;20280;-84
2024/04/22 06:23:47;;;;;;;9.87;5.63;;;;;7.50;102058.00;;;;13952503;20;20253;-81
2024/04/22 06:28:49;;;;;;;7.43;5.27;;;;;7.80;102051.00;;;;13951385;21;20253;-82
2024/04/22 06:33:51;;;;;;;8.20;5.60;;;;;8.20;102044.00;;;;13948678;20;20276;-82
2024/04/22 06:38:52;;;;;;;6.87;5.20;;;;;8.60;102042.00;;;;13950355;20;20633;-81
2024/04/22 06:43:54;;;;;;;7.00;4.60;;;;;9.50;102056.00;;;;13954254;20;20416;-82
2024/04/22 06:48:55;;;;;;;6.87;4.80;;;;;9.70;102043.00;;;;13950318;20;20276;-82
2024/04/22 06:53:57;;;;;;;6.63;4.13;;;;;10.10;102038.00;;;;14041751;20;20275;-82
2024/04/22 06:58:58;;;;;;;4.77;4.17;;;;;10.10;102046.00;;;;13996015;20;20359;-82
2024/04/22 07:03:59;;;;;;;5.90;4.70;;;;;10.20;102041.00;;;;13952289;20;20257;-82
2024/04/22 07:09:09;;;;;;;7.40;4.63;;;;;10.40;102030.00;;;;13996610;20;20271;-82
2024/04/22 07:14:11;;;;;;;4.77;4.00;;;;;10.80;102032.00;;;;13947684;20;20811;-82
2024/04/22 07:19:14;;;;;;;4.60;3.43;;;;;11.40;102034.00;;;;13996584;20;20357;-82
2024/04/22 07:24:15;;;;;;;6.13;3.33;;;;;11.70;102030.00;;;;13906709;20;20271;-82
2024/04/22 07:29:17;;;;;;;5.77;3.10;;;;;12.00;102036.00;;;;13948930;20;20246;-82
2024/04/22 07:34:19;;;;;;;4.70;2.43;;;;;12.20;102024.00;;;;14043669;20;20349;-82
2024/04/22 07:39:25;;;;;;;4.77;2.40;;;;;12.50;102025.00;;;;13993007;21;20241;-83
2024/04/22 07:44:26;;;;;;;4.00;2.20;;;;;13.00;102031.00;;;;13995728;20;20257;-82
2024/04/22 07:49:27;;;;;;;5.17;2.70;;;;;12.90;102021.00;;;;13947312;21;20273;-82
2024/04/22 07:54:29;;;;;;;3.50;2.40;;;;;12.40;102030.00;;;;13949364;21;20337;-82
2024/04/22 07:59:31;;;;;;;4.55;2.50;;;;;12.70;102028.00;;;;13948055;20;20245;-81
2024/04/22 08:04:32;;;;;;;6.97;2.40;;;;;13.00;102018.00;;;;13950874;20;20295;-81
2024/04/22 08:09:34;;;;;;;5.43;2.20;;;;;13.40;102021.00;;;;13905173;20;20253;-81
2024/04/22 08:14:35;;;;;;;5.10;2.35;;;;;13.60;102021.00;;;;13950437;20;20261;-80
2024/04/22 08:19:38;;;;;;;4.68;1.92;;;;;13.50;102014.00;;;;13994069;20;20955;-80
2024/04/22 08:24:39;;;;;;;4.18;1.90;;;;;13.60;102013.00;;;;13994064;20;20261;-80
2024/04/22 08:29:40;;;;;;;4.80;1.70;;;;;13.80;102017.00;;;;13994958;21;20285;-83
2024/04/22 08:34:43;;;;;;;5.30;2.00;;;;;14.00;102011.00;;;;13949177;20;20250;-82
2024/04/22 08:39:45;;;;;;;3.78;2.25;;;;;13.80;102012.00;;;;13902208;20;20268;-83
2024/04/22 08:44:48;;;;;;;4.97;2.10;;;;;14.10;102014.00;;;;13902513;21;20245;-77
2024/04/22 08:49:50;;;;;;;3.10;1.60;;;;;14.50;102009.00;;;;13949458;20;20374;-77
2024/04/22 08:54:52;;;;;;;4.22;2.03;;;;;15.10;102011.00;;;;13993128;21;20253;-78
2024/04/22 08:59:53;;;;;;;3.80;1.67;;;;;15.70;102015.00;;;;13995608;21;20904;-77
2024/04/22 09:04:54;;;;;;;4.20;1.52;;;;;16.10;102009.00;;;;13993104;21;20253;-78
2024/04/22 09:09:58;;;;;;;2.67;1.20;;;;;16.20;102006.00;;;;13949252;21;20245;-78
2024/04/22 09:15:19;;;;;;;2.10;1.50;;;;;15.90;102009.00;;;;14001752;21;20249;-79
2024/04/22 09:20:26;;;;;;;4.13;1.95;;;;;16.40;101999.00;;;;13948216;21;20257;-79
2024/04/22 09:25:27;;;;;;;2.50;1.50;;;;;16.80;101994.00;;;;13990570;21;20306;-78
2024/04/22 09:30:38;;;;;;;2.65;1.70;;;;;16.10;101991.00;;;;14038081;21;20246;-78
2024/04/22 09:35:41;;;;;;;3.67;1.80;;;;;16.40;101996.00;;;;14041479;20;20261;-79
2024/04/22 09:40:44;;;;;;;4.03;1.98;;;;;15.40;101996.00;;;;13948172;21;20249;-79
2024/04/22 09:45:51;;;;;;;3.35;1.80;;;;;15.40;102002.00;;;;13998887;20;20256;-78
2024/04/22 09:50:54;;;;;;;4.65;1.75;;;;;15.10;102002.00;;;;13997287;20;20249;-79
2024/04/22 09:55:59;;;;;;;2.83;1.40;;;;;14.70;101986.00;;;;14045165;20;20297;-83
2024/04/22 10:01:01;;;;;;;2.75;1.65;;;;;14.10;101986.00;;;;13952092;21;20333;-83
2024/04/22 10:06:06;;;;;;;3.50;1.60;;;;;14.00;101983.00;;;;14045914;20;20715;-83
2024/04/22 10:11:08;;;;;;;3.47;1.60;;;;;14.00;101987.00;;;;13951610;20;20253;-82
2024/04/22 10:16:14;;;;;;;5.25;1.45;;;;;15.70;101965.00;;;;13998632;20;20245;-83
2024/04/22 10:21:15;;;;;;;3.10;1.27;;;;;14.30;101976.00;;;;13908406;21;20275;-84
2024/04/22 10:26:18;;;;;;;3.58;1.42;;;;;14.40;101972.00;;;;13999773;21;20261;-82
2024/04/22 10:31:20;;;;;;;3.63;1.45;;;;;16.30;101958.00;;;;13996197;20;20288;-83
2024/04/22 10:36:23;;;;;;;2.90;1.30;;;;;15.50;101968.00;;;;13997520;21;20272;-82
2024/04/22 10:41:25;;;;;;;2.83;1.38;;;;;14.10;101960.00;;;;13997794;20;20241;-81
2024/04/22 10:46:26;;;;;;;2.55;1.42;;;;;14.00;101951.00;;;;13953176;20;20249;-82
2024/04/22 10:51:28;;;;;;;2.53;1.30;;;;;14.60;101943.00;;;;14046146;20;20249;-82
2024/04/22 10:56:30;;;;;;;2.72;1.60;;;;;14.90;101932.00;;;;13996245;20;20351;-82
2024/04/22 11:01:32;;;;;;;2.08;1.08;;;;;13.90;101931.00;;;;13996951;20;20668;-81
2024/04/22 11:06:36;;;;;;;2.75;1.00;;;;;13.60;101919.00;;;;13951185;21;20245;-82
2024/04/22 11:11:38;;;;;;;2.28;1.45;;;;;14.20;101916.00;;;;13951413;20;20672;-82
2024/04/22 11:16:40;;;;;;;4.10;1.50;;;;;15.40;101911.00;;;;13905522;21;21145;-82
2024/04/22 11:21:41;;;;;;;2.45;1.00;;;;;16.60;101902.00;;;;13995310;21;20245;-81
2024/04/22 11:26:43;;;;;;;1.77;1.55;;;;;16.70;101902.00;;;;13995246;21;20734;-82
2024/04/22 11:31:44;;;;;;;3.67;1.17;;;;;17.70;101906.00;;;;13907164;21;20237;-81
2024/04/22 11:37:01;;;;;;;3.58;1.55;;;;;18.50;101896.00;;;;13997023;20;20299;-82
2024/04/22 11:42:03;;;;;;;2.90;1.55;;;;;18.90;101892.00;;;;13950166;20;20297;-83
2024/04/22 11:47:04;;;;;;;4.25;1.63;;;;;17.40;101884.00;;;;13996603;20;20295;-81
2024/04/22 11:52:06;;;;;;;2.03;1.42;;;;;15.10;101888.00;;;;13951211;20;20248;-82
2024/04/22 11:57:07;;;;;;;5.35;1.77;;;;;14.00;101886.00;;;;13994679;20;20258;-82
2024/04/22 12:02:09;;;;;;;3.13;1.38;;;;;13.60;101877.00;;;;13949155;20;20277;-82
2024/04/22 12:07:10;;;;;;;4.22;1.33;;;;;13.00;101871.00;;;;13949793;21;20308;-82
2024/04/22 12:12:11;;;;;;;2.70;1.40;;;;;15.70;101857.00;;;;13951167;20;20249;-81
2024/04/22 12:17:14;;;;;;;3.17;1.52;;;;;17.20;101843.00;;;;13992848;20;20246;-82
2024/04/22 12:22:16;;;;;;;4.50;1.48;;;;;17.40;101841.00;;;;13902133;21;20778;-81
2024/04/22 12:27:17;;;;;;;2.20;1.10;;;;;17.40;101845.00;;;;14042489;20;20258;-81
2024/04/22 12:32:18;;;;;;;2.97;1.20;;;;;16.90;101832.00;;;;13902277;21;20253;-81
2024/04/22 12:37:20;;;;;;;2.25;1.50;;;;;15.90;101826.00;;;;13904177;20;20268;-82
2024/04/22 12:42:21;;;;;;;4.10;1.67;;;;;15.60;101817.00;;;;14041532;20;20245;-83
2024/04/22 12:52:43;;;;;;;2.15;1.65;;;;;16.30;101813.00;;;;13994261;20;20264;-81
2024/04/22 12:57:45;;;;;;;6.82;1.50;;;;;16.90;101797.00;;;;13994122;20;20840;-82
2024/04/22 13:02:46;;;;;;;2.75;1.50;;;;;15.70;101804.00;;;;13994131;21;20329;-84
2024/04/22 13:07:48;;;;;;;3.92;1.75;;;;;13.90;101809.00;;;;13992954;21;20249;-81
2024/04/22 13:12:50;;;;;;;7.03;2.30;;;;;14.30;101789.00;;;;13903363;21;20272;-81
2024/04/22 13:17:51;;;;;;;2.80;1.30;;;;;15.80;101789.00;;;;13993474;21;20245;-81
2024/04/22 13:22:53;;;;;;;2.13;1.08;;;;;16.80;101772.00;;;;13947307;21;20363;-80
2024/04/22 13:27:54;;;;;;;4.57;1.75;;;;;17.70;101763.00;;;;14041779;20;20246;-81
2024/04/22 13:32:56;;;;;;;2.55;1.50;;;;;18.60;101757.00;;;;13993505;21;21051;-81
2024/04/22 13:37:58;;;;;;;2.75;1.52;;;;;18.90;101746.00;;;;13995788;20;20303;-81
2024/04/22 13:43:00;;;;;;;4.45;1.63;;;;;17.50;101752.00;;;;13994083;21;20241;-82
2024/04/22 13:48:02;;;;;;;3.85;1.63;;;;;16.20;101743.00;;;;13994083;21;20250;-82
2024/04/22 13:53:04;;;;;;;6.35;1.50;;;;;17.70;101734.00;;;;13993777;20;20572;-83
2024/04/22 13:58:25;;;;;;;3.15;0.90;;;;;17.70;101745.00;;;;13954798;20;20362;-82
2024/04/22 14:03:27;;;;;;;6.13;2.20;;;;;15.80;101756.00;;;;14041105;20;20277;-82
2024/04/22 14:08:28;;;;;;;6.97;1.73;;;;;14.30;101765.00;;;;13992917;20;20345;-81
2024/04/22 14:13:30;;;;;;;2.97;2.03;;;;;13.70;101770.00;;;;13947195;20;20821;-80
2024/04/22 14:18:31;;;;;;;4.13;1.73;;;;;13.40;101779.00;;;;13904573;20;20315;-83
2024/04/22 14:23:33;;;;;;;3.47;2.15;;;;;12.20;101787.00;;;;14040287;20;20579;-81
2024/04/22 14:28:34;;;;;;;4.43;1.90;;;;;11.40;101793.00;;;;14040204;20;20942;-83
2024/04/22 14:33:40;;;;;;;2.90;1.83;;;;;9.60;101801.00;;;;13999654;21;20316;-85
2024/04/22 14:38:41;;;;;;;4.53;2.13;;;;;8.60;101790.00;;;;13913010;20;20240;-87
2024/04/22 14:43:43;;;;;;;3.70;2.23;;;;;8.80;101778.00;;;;14007078;21;20332;-86
2024/04/22 14:48:44;;;;;;;2.77;2.20;;;;;9.30;101764.00;;;;13959065;21;20237;-85
2024/04/22 14:53:48;;;;;;;3.57;2.10;;;;;10.80;101754.00;;;;14001677;21;20310;-85
2024/04/22 14:58:50;;;;;;;8.23;2.87;;;;;11.10;101749.00;;;;13962628;20;20246;-84
2024/04/22 15:03:52;;;;;;;3.20;2.20;;;;;11.20;101740.00;;;;13954786;21;20263;-84
2024/04/22 15:08:53;;;;;;;5.70;2.63;;;;;12.10;101736.00;;;;13950767;21;20249;-84
2024/04/22 15:13:56;;;;;;;4.57;1.97;;;;;13.10;101729.00;;;;13906765;20;20287;-84
2024/04/22 15:18:57;;;;;;;3.53;2.00;;;;;13.30;101723.00;;;;14046203;20;20276;-83
2024/04/22 15:23:58;;;;;;;2.15;1.80;;;;;13.70;101723.00;;;;13950995;20;20341;-86
2024/04/22 15:29:02;;;;;;;3.87;2.00;;;;;13.60;101725.00;;;;13995192;20;20633;-83
2024/04/22 15:34:03;;;;;;;6.30;2.20;;;;;13.40;101726.00;;;;13994167;20;20319;-83
2024/04/22 15:39:07;;;;;;;3.53;2.20;;;;;13.20;101713.00;;;;13996001;21;20245;-84
2024/04/22 15:44:09;;;;;;;4.50;2.03;;;;;12.90;101722.00;;;;13997228;21;20557;-83
2024/04/22 15:49:10;;;;;;;4.17;1.90;;;;;12.40;101712.00;;;;13996296;21;20313;-83
2024/04/22 15:54:12;;;;;;;5.13;2.10;;;;;12.10;101716.00;;;;13950847;21;20249;-83
2024/04/22 15:59:13;;;;;;;1.70;1.60;;;;;11.90;101718.00;;;;13995617;21;20651;-83
2024/04/22 16:04:15;;;;;;;3.17;1.90;;;;;11.70;101721.00;;;;13997513;20;20322;-82
2024/04/22 16:09:16;;;;;;;2.40;1.80;;;;;12.00;101727.00;;;;13995719;21;20253;-83
2024/04/22 16:14:18;;;;;;;2.07;1.77;;;;;12.00;101724.00;;;;13995058;21;20345;-83
2024/04/22 16:19:19;;;;;;;5.97;2.50;;;;;11.90;101730.00;;;;13949643;21;20245;-83
2024/04/22 16:24:23;;;;;;;4.13;2.10;;;;;11.80;101719.00;;;;13950935;20;20261;-82
2024/04/22 16:29:25;;;;;;;4.87;2.60;;;;;11.70;101728.00;;;;13994341;21;20982;-82
2024/04/22 16:34:26;;;;;;;5.83;2.57;;;;;11.50;101725.00;;;;14043502;20;20292;-83
2024/04/22 16:39:27;;;;;;;3.97;2.60;;;;;11.00;101733.00;;;;13994999;20;20242;-83
2024/04/22 16:44:29;;;;;;;5.23;3.10;;;;;10.50;101734.00;;;;14043918;20;20297;-82
2024/04/22 16:49:30;;;;;;;4.60;2.93;;;;;10.10;101729.00;;;;13905057;20;20320;-84
2024/04/22 16:54:32;;;;;;;5.03;3.57;;;;;10.00;101726.00;;;;13992711;20;20265;-77
2024/04/22 16:59:34;;;;;;;3.93;3.30;;;;;9.90;101728.00;;;;13949527;20;20264;-78
2024/04/22 17:04:35;;;;;;;4.43;3.23;;;;;9.60;101730.00;;;;13994685;20;20253;-76
2024/04/22 17:09:37;;;;;;;3.40;2.70;;;;;9.40;101725.00;;;;13994129;20;20897;-76
2024/04/22 17:14:39;;;;;;;4.20;2.70;;;;;9.10;101719.00;;;;13944510;20;20345;-76
2024/04/22 17:19:40;;;;;;;3.83;2.30;;;;;8.90;101711.00;;;;13903101;20;20250;-78
2024/04/22 17:24:42;;;;;;;3.47;2.33;;;;;8.70;101704.00;;;;13992840;21;20257;-77
2024/04/22 17:29:43;;;;;;;4.50;2.47;;;;;8.50;101706.00;;;;13994095;20;20260;-77
2024/04/22 17:34:44;;;;;;;3.03;2.73;;;;;8.50;101711.00;;;;13947637;20;20721;-76
2024/04/22 17:39:46;;;;;;;2.80;2.47;;;;;8.30;101703.00;;;;13946525;21;20353;-77
2024/04/22 17:44:49;;;;;;;3.37;2.37;;;;;8.00;101701.00;;;;13948247;21;20253;-77
2024/04/22 17:49:51;;;;;;;4.47;2.60;;;;;7.60;101702.00;;;;13948907;20;20613;-76
2024/04/22 17:54:52;;;;;;;3.40;2.67;;;;;7.50;101703.00;;;;13949088;21;20279;-76
2024/04/22 17:59:54;;;;;;;3.63;2.60;;;;;7.30;101715.00;;;;13948394;21;20279;-79
2024/04/22 18:04:56;;;;;;;4.03;2.90;;;;;7.30;101712.00;;;;13948809;21;20273;-78
2024/04/22 18:09:57;;;;;;;3.10;2.70;;;;;7.20;101720.00;;;;14000288;20;20336;-77
2024/04/22 18:14:59;;;;;;;3.43;2.80;;;;;7.20;101717.00;;;;13997187;20;20272;-78
2024/04/22 18:20:00;;;;;;;5.00;3.07;;;;;7.20;101718.00;;;;13951839;21;20257;-76
2024/04/22 18:25:02;;;;;;;4.50;3.43;;;;;7.30;101725.00;;;;13952581;21;20276;-77
2024/04/22 18:30:04;;;;;;;4.33;3.67;;;;;7.30;101712.00;;;;13952155;20;20241;-79
2024/04/22 18:35:06;;;;;;;6.30;3.67;;;;;7.20;101726.00;;;;14046123;20;20257;-76
2024/04/22 18:40:07;;;;;;;3.57;3.13;;;;;7.20;101723.00;;;;13951319;21;20257;-78
2024/04/22 18:45:09;;;;;;;5.10;3.43;;;;;7.00;101728.00;;;;14046192;20;20269;-77
2024/04/22 18:50:10;;;;;;;5.20;4.00;;;;;7.00;101734.00;;;;13996073;20;20276;-77
2024/04/22 18:55:12;;;;;;;4.97;3.80;;;;;6.80;101739.00;;;;14047441;20;20971;-76
2024/04/22 19:00:13;;;;;;;5.83;3.20;;;;;6.80;101740.00;;;;13951706;20;20241;-77
2024/04/22 19:05:16;;;;;;;4.10;3.20;;;;;6.80;101747.00;;;;13951973;20;20245;-77
2024/04/22 19:10:17;;;;;;;7.00;2.90;;;;;6.80;101749.00;;;;13952725;20;20364;-77
2024/04/22 19:15:19;;;;;;;5.27;3.50;;;;;6.80;101755.00;;;;14047200;20;21039;-81
2024/04/22 19:20:20;;;;;;;4.93;3.07;;;;;6.90;101757.00;;;;14044596;20;20249;-81
2024/04/22 19:25:22;;;;;;;4.63;3.60;;;;;6.90;101754.00;;;;14044826;20;20296;-81
2024/04/22 19:30:24;;;;;;;3.90;3.30;;;;;6.80;101767.00;;;;13995372;21;20276;-80
2024/04/22 19:35:25;;;;;;;4.63;3.73;;;;;6.70;101774.00;;;;13996410;21;20682;-81
2024/04/22 19:40:27;;;;;;;4.87;3.37;;;;;6.50;101772.00;;;;13951858;20;20241;-81
2024/04/22 19:45:29;;;;;;;5.90;3.77;;;;;6.20;101772.00;;;;13996072;21;20253;-81
2024/04/22 19:50:30;;;;;;;3.47;3.17;;;;;6.00;101785.00;;;;13905816;21;20311;-81
2024/04/22 19:55:35;;;;;;;3.63;3.00;;;;;5.70;101782.00;;;;13950773;21;20276;-81
2024/04/22 20:00:37;;;;;;;5.27;3.80;;;;;5.50;101785.00;;;;14046613;20;20246;-80
2024/04/22 20:05:38;;;;;;;5.73;3.90;;;;;5.30;101780.00;;;;13996152;21;20268;-81
2024/04/22 20:10:41;;;;;;;5.23;4.03;;;;;5.20;101786.00;;;;13949851;20;20345;-81
2024/04/22 20:15:50;;;;;;;7.07;4.07;;;;;5.10;101784.00;;;;13950443;20;20253;-81
2024/04/22 20:20:55;;;;;;;5.63;3.97;;;;;5.00;101786.00;;;;13952543;20;20249;-81
2024/04/22 21:34:33;;;;;;;14.67;9.77;;;;;3.60;101797.00;;;;13808566;21;20240;-80
2024/04/22 21:39:34;;;;;;;14.87;9.23;;;;;3.60;101800.00;;;;13883253;21;20292;-80
2024/04/22 21:44:36;;;;;;;21.77;10.93;;;;;3.50;101804.00;;;;13886733;21;20348;-80
2024/04/22 21:49:38;;;;;;;16.43;10.17;;;;;3.40;101801.00;;;;13932877;21;20246;-79
2024/04/22 21:54:40;;;;;;;7.33;5.47;;;;;3.50;101791.00;;;;13931711;21;20301;-80
2024/04/22 22:00:19;;;;;;;6.57;5.20;;;;;3.50;101799.00;;;;13935579;21;20258;-80
2024/04/22 22:05:58;;;;;;;4.87;4.10;;;;;3.50;101800.00;;;;13932590;21;20243;-80
2024/04/22 22:11:00;;;;;;;6.13;4.47;;;;;3.40;101802.00;;;;13887350;21;20724;-80
2024/04/22 22:16:03;;;;;;;5.40;3.73;;;;;3.40;101798.00;;;;13936303;21;20293;-80
2024/04/22 22:21:04;;;;;;;6.33;4.27;;;;;3.40;101806.00;;;;13888301;21;20258;-80
2024/04/22 22:26:06;;;;;;;4.10;3.50;;;;;3.40;101804.00;;;;13842206;21;20719;-79
2024/04/22 22:31:07;;;;;;;5.87;3.80;;;;;3.30;101805.00;;;;13884399;21;20250;-79
2024/04/22 22:36:09;;;;;;;7.10;3.90;;;;;3.30;101802.00;;;;13931738;21;20247;-80
2024/04/22 22:41:10;;;;;;;4.10;3.70;;;;;3.10;101798.00;;;;13932005;21;20301;-80
2024/04/22 22:46:12;;;;;;;6.93;4.00;;;;;3.00;101792.00;;;;13931710;21;20258;-80
2024/04/22 22:51:13;;;;;;;8.70;4.10;;;;;2.80;101798.00;;;;13934179;21;20298;-79
2024/04/22 22:56:14;;;;;;;4.77;4.00;;;;;2.70;101786.00;;;;13930864;21;20259;-80
2024/04/22 23:01:16;;;;;;;4.40;3.60;;;;;2.60;101793.00;;;;13931531;21;20254;-80
2024/04/22 23:06:17;;;;;;;6.53;4.27;;;;;2.50;101782.00;;;;13931115;21;20340;-79
2024/04/22 23:11:19;;;;;;;7.23;4.33;;;;;2.30;101781.00;;;;13932363;21;20233;-79
2024/04/22 23:16:21;;;;;;;7.03;3.63;;;;;2.20;101772.00;;;;13929732;21;20664;-80
2024/04/22 23:21:22;;;;;;;7.07;3.80;;;;;2.10;101776.00;;;;13930682;21;20242;-79
2024/04/22 23:26:23;;;;;;;5.83;3.37;;;;;1.90;101769.00;;;;13930528;21;20250;-80
2024/04/22 23:31:25;;;;;;;5.73;3.53;;;;;1.80;101771.00;;;;13930339;21;20727;-79
2024/04/22 23:36:26;;;;;;;5.67;3.93;;;;;1.70;101778.00;;;;13929816;21;20346;-80
2024/04/22 23:41:28;;;;;;;8.40;4.93;;;;;1.70;101761.00;;;;13930474;21;20246;-79
2024/04/22 23:46:29;;;;;;;5.87;3.73;;;;;1.60;101762.00;;;;13929175;21;20266;-79
2024/04/22 23:51:34;;;;;;;7.10;4.30;;;;;1.50;101752.00;;;;13930986;21;20356;-83
2024/04/22 23:56:35;;;;;;;8.50;3.93;;;;;1.40;101759.00;;;;13884627;21;20254;-84
